Time;durP1;ratioP1;P1;durP2;ratioP2;P2;SDS_P1;SDS_P2;PMS_P1;PMS_P2;Temp;Humidity;BMP_temperature;BMP_pressure;BME280_temperature;BME280_humidity;BME280_pressure;Samples;Min_cycle;Max_cycle;Signal;HPM_P1;HPM_P2
2022/12/17 13:06:53;;;;;;;14.32;9.63;;;22.40;30.30;;;;;;5070300;28;20132;-71
2022/12/17 13:09:46;;;;;;;15.25;9.52;;;22.40;30.40;;;;;;5083722;28;20083;-71
2022/12/17 13:12:22;;;;;;;14.43;9.45;;;22.40;30.30;;;;;;5069716;28;20124;-71
2022/12/17 13:15:12;;;;;;;13.05;9.15;;;22.40;30.30;;;;;;5070120;28;20048;-71
2022/12/17 13:17:45;;;;;;;15.17;9.67;;;22.40;30.30;;;;;;5070177;28;20054;-71
2022/12/17 13:20:29;;;;;;;12.45;8.43;;;22.30;30.30;;;;;;5069708;28;20135;-71
2022/12/17 13:23:24;;;;;;;13.98;8.93;;;22.30;30.30;;;;;;5065684;28;20295;-71
2022/12/17 13:26:22;;;;;;;15.73;9.50;;;22.30;30.40;;;;;;5081424;28;20051;-71
2022/12/17 13:29:09;;;;;;;13.23;9.00;;;22.30;30.30;;;;;;5069341;28;20113;-71
2022/12/17 13:31:59;;;;;;;12.48;8.38;;;22.30;30.40;;;;;;5083981;28;20425;-71
2022/12/17 13:35:06;;;;;;;12.90;8.80;;;22.30;30.50;;;;;;5082907;28;20416;-71
2022/12/17 13:38:13;;;;;;;13.83;9.07;;;22.30;30.50;;;;;;5069146;28;20135;-72
2022/12/17 13:41:08;;;;;;;12.52;8.63;;;22.20;30.50;;;;;;5054401;28;20048;-71
2022/12/17 13:43:46;;;;;;;15.25;9.32;;;22.20;30.50;;;;;;5069378;28;20253;-72
2022/12/17 13:46:28;;;;;;;15.15;9.68;;;22.20;30.50;;;;;;5069665;28;20052;-71
2022/12/17 13:49:01;;;;;;;13.10;9.52;;;22.20;30.50;;;;;;5069378;28;20102;-71
2022/12/17 13:51:34;;;;;;;13.25;8.85;;;22.20;30.50;;;;;;5084041;28;20140;-72
2022/12/17 13:54:03;;;;;;;14.77;8.93;;;22.20;30.50;;;;;;5064594;28;20119;-71
2022/12/17 13:56:34;;;;;;;12.48;8.45;;;22.20;30.50;;;;;;5068145;28;20530;-72
2022/12/17 13:59:03;;;;;;;14.48;9.80;;;22.20;30.50;;;;;;5051682;28;20053;-71
2022/12/17 14:01:45;;;;;;;13.00;8.93;;;22.20;30.50;;;;;;5051572;28;20053;-72
2022/12/17 14:04:24;;;;;;;14.05;10.05;;;22.20;30.50;;;;;;5069388;28;20049;-71
2022/12/17 14:06:54;;;;;;;14.18;9.23;;;22.20;30.50;;;;;;5068749;28;20051;-72
2022/12/17 14:09:28;;;;;;;15.27;9.68;;;22.10;30.50;;;;;;5069123;28;20132;-71
2022/12/17 14:14:46;;;;;;;13.10;8.52;;;22.10;30.60;;;;;;5054183;28;20044;-72
2022/12/17 14:17:21;;;;;;;13.48;8.63;;;22.10;30.60;;;;;;5068273;28;20051;-71
2022/12/17 14:20:00;;;;;;;12.13;8.32;;;22.10;30.60;;;;;;5067927;28;20048;-71
2022/12/17 14:22:34;;;;;;;14.57;9.02;;;22.10;30.60;;;;;;5068657;28;20044;-72
2022/12/17 14:25:04;;;;;;;13.15;9.32;;;22.10;30.60;;;;;;5050898;28;20098;-71
2022/12/17 14:27:35;;;;;;;14.48;8.95;;;22.10;31.20;;;;;;5045188;28;20044;-73
2022/12/17 14:30:24;;;;;;;12.52;8.65;;;22.00;30.60;;;;;;5049549;28;20049;-71
2022/12/17 14:32:51;;;;;;;12.90;8.88;;;22.00;30.60;;;;;;5068257;28;20519;-72
2022/12/17 14:35:25;;;;;;;14.93;9.48;;;22.00;30.60;;;;;;5084003;28;20361;-71
2022/12/17 14:37:52;;;;;;;13.77;9.18;;;22.00;30.60;;;;;;5068134;28;20071;-71
2022/12/17 14:40:21;;;;;;;13.40;9.02;;;22.00;30.60;;;;;;5068213;28;20044;-71
2022/12/17 14:42:49;;;;;;;11.75;8.48;;;22.00;30.60;;;;;;5068045;28;20049;-71
2022/12/17 14:45:23;;;;;;;13.15;8.68;;;21.90;30.60;;;;;;5068246;28;20052;-71
2022/12/17 14:47:59;;;;;;;11.88;8.23;;;21.90;30.60;;;;;;5068254;28;20049;-71
2022/12/17 14:50:30;;;;;;;11.95;8.48;;;21.90;30.60;;;;;;5068296;28;20041;-71
2022/12/17 14:52:59;;;;;;;13.25;8.93;;;21.90;30.60;;;;;;5068518;28;20052;-71
2022/12/17 14:55:54;;;;;;;12.57;8.27;;;21.90;30.60;;;;;;5067564;28;20048;-71
2022/12/17 14:58:24;;;;;;;12.10;8.00;;;21.90;30.60;;;;;;5063295;28;20059;-71
2022/12/17 15:01:07;;;;;;;13.60;8.63;;;21.90;30.70;;;;;;5067643;28;20135;-71
2022/12/17 15:03:40;;;;;;;11.25;8.10;;;21.80;30.60;;;;;;5067849;28;20045;-71
2022/12/17 15:06:10;;;;;;;15.18;8.90;;;21.80;30.60;;;;;;5067861;28;20056;-71
2022/12/17 15:08:45;;;;;;;12.60;9.10;;;21.80;30.70;;;;;;5083244;28;20083;-72
2022/12/17 15:11:15;;;;;;;11.52;7.80;;;21.90;30.70;;;;;;5067964;28;20048;-71
2022/12/17 15:13:42;;;;;;;12.23;8.30;;;21.90;30.70;;;;;;5067480;28;20049;-71
2022/12/17 15:16:09;;;;;;;12.55;7.95;;;21.90;30.70;;;;;;5067580;28;20411;-71
2022/12/17 15:18:37;;;;;;;14.18;9.02;;;21.90;30.60;;;;;;5067464;28;20349;-71
2022/12/17 15:21:04;;;;;;;10.10;7.00;;;21.90;30.60;;;;;;5066627;28;20048;-71
2022/12/17 15:23:32;;;;;;;12.45;8.23;;;21.90;30.70;;;;;;5067781;28;20058;-71
2022/12/17 15:25:59;;;;;;;11.45;8.00;;;21.90;30.70;;;;;;5067884;28;20501;-71
2022/12/17 15:28:26;;;;;;;11.90;8.02;;;21.80;30.70;;;;;;5068078;28;20044;-72
2022/12/17 15:30:53;;;;;;;11.98;8.35;;;21.80;30.80;;;;;;5065625;28;20063;-71
2022/12/17 15:33:21;;;;;;;10.73;7.47;;;21.80;30.80;;;;;;5064440;28;20127;-71
2022/12/17 15:35:48;;;;;;;11.85;7.43;;;21.80;30.90;;;;;;5067947;28;20049;-72
2022/12/17 15:38:15;;;;;;;8.50;6.68;;;21.70;30.90;;;;;;5067399;28;20040;-72
2022/12/17 15:40:42;;;;;;;10.15;7.65;;;21.70;31.00;;;;;;5067495;28;20067;-73
2022/12/17 15:43:12;;;;;;;13.07;8.35;;;21.70;31.10;;;;;;5049643;28;20563;-72
2022/12/17 15:45:41;;;;;;;;;;;21.60;31.10;;;;;;5083831;28;20404;-72
2022/12/17 15:48:10;;;;;;;9.88;7.25;;;21.60;31.20;;;;;;5067083;28;19921;-72
2022/12/17 15:50:38;;;;;;;10.50;6.97;;;21.60;31.30;;;;;;5054537;28;20048;-72
2022/12/17 15:53:09;;;;;;;10.10;6.57;;;21.50;31.30;;;;;;5067352;28;20045;-72
2022/12/17 15:55:37;;;;;;;8.52;6.30;;;21.50;31.40;;;;;;5067511;28;20053;-72
2022/12/17 15:58:05;;;;;;;10.75;6.90;;;21.50;31.50;;;;;;5067096;28;20055;-72
2022/12/17 16:00:32;;;;;;;10.60;6.88;;;21.40;31.50;;;;;;5067353;28;20131;-71
2022/12/17 16:02:59;;;;;;;10.60;7.15;;;21.40;31.50;;;;;;5066924;28;20045;-72
2022/12/17 16:05:27;;;;;;;10.80;6.95;;;21.40;31.60;;;;;;5067938;28;20052;-72
2022/12/17 16:07:57;;;;;;;8.77;6.03;;;21.30;31.70;;;;;;5061275;28;20584;-72
2022/12/17 16:10:25;;;;;;;8.95;6.18;;;21.30;31.70;;;;;;5067850;28;20122;-72
2022/12/17 16:12:52;;;;;;;8.18;6.15;;;21.30;31.80;;;;;;5067622;28;20048;-72
2022/12/17 16:15:19;;;;;;;9.18;6.55;;;21.30;31.90;;;;;;5067454;28;20045;-72
2022/12/17 16:17:46;;;;;;;9.00;6.43;;;21.20;32.40;;;;;;5067804;28;20048;-72
2022/12/17 16:20:13;;;;;;;8.85;6.10;;;21.20;31.90;;;;;;5065904;28;20378;-72
2022/12/17 16:22:40;;;;;;;8.50;6.07;;;21.20;32.00;;;;;;5066882;28;20033;-72
2022/12/17 16:25:07;;;;;;;11.20;6.85;;;21.20;32.00;;;;;;5067034;28;20059;-72
2022/12/17 16:27:34;;;;;;;10.00;6.30;;;21.20;32.10;;;;;;5066682;28;20076;-72
2022/12/17 16:30:02;;;;;;;7.90;5.53;;;21.10;32.10;;;;;;5067372;28;20053;-72
2022/12/17 16:32:29;;;;;;;8.32;6.55;;;21.10;32.10;;;;;;5082392;28;20500;-72
2022/12/17 16:35:03;;;;;;;8.70;6.00;;;21.10;32.20;;;;;;5067715;28;20052;-72
2022/12/17 16:37:30;;;;;;;8.77;6.05;;;21.10;32.30;;;;;;5067116;28;20132;-72
2022/12/17 16:39:57;;;;;;;8.10;5.82;;;21.00;32.30;;;;;;5066319;28;20044;-72
2022/12/17 16:42:26;;;;;;;9.77;5.90;;;21.10;32.40;;;;;;5062702;28;20055;-72
2022/12/17 16:44:53;;;;;;;8.10;5.72;;;21.00;32.30;;;;;;5070138;28;20485;-72
2022/12/17 16:47:20;;;;;;;6.30;5.55;;;21.00;32.40;;;;;;5070699;28;20047;-72
2022/12/17 16:49:49;;;;;;;7.55;5.80;;;21.00;32.50;;;;;;5052567;28;20409;-72
2022/12/17 16:52:17;;;;;;;7.18;5.40;;;21.00;32.50;;;;;;5069675;28;20046;-72
2022/12/17 16:54:44;;;;;;;10.18;6.07;;;21.00;32.50;;;;;;5071241;28;20416;-72
2022/12/17 16:57:11;;;;;;;7.60;5.30;;;20.90;32.50;;;;;;5069902;28;20044;-71
2022/12/17 16:59:38;;;;;;;8.68;5.93;;;20.90;32.50;;;;;;5069928;28;20058;-71
2022/12/17 17:02:12;;;;;;;8.00;5.40;;;20.90;32.60;;;;;;5070525;28;20419;-72
2022/12/17 17:04:39;;;;;;;7.40;5.18;;;20.90;32.60;;;;;;5070280;28;20132;-71
2022/12/17 17:07:07;;;;;;;7.53;5.50;;;20.90;32.70;;;;;;5070259;28;20128;-72
2022/12/17 17:09:34;;;;;;;7.95;5.50;;;20.90;32.70;;;;;;5069753;28;20051;-72
2022/12/17 17:12:01;;;;;;;6.60;5.20;;;20.90;32.70;;;;;;5069535;28;20626;-72
2022/12/17 17:14:28;;;;;;;7.38;5.07;;;20.90;32.70;;;;;;5066454;28;20049;-72
2022/12/17 17:16:55;;;;;;;9.05;6.00;;;20.80;32.70;;;;;;5070108;28;20316;-71
2022/12/17 17:19:22;;;;;;;6.30;4.93;;;20.90;32.80;;;;;;5085292;28;20501;-72
2022/12/17 17:21:53;;;;;;;7.43;4.90;;;20.80;32.80;;;;;;5084775;28;20045;-71
2022/12/17 17:24:24;;;;;;;7.10;4.90;;;20.80;32.80;;;;;;5069789;28;20488;-72
2022/12/17 17:26:51;;;;;;;;;;;20.80;32.80;;;;;;5070710;28;20484;-72
2022/12/17 17:29:19;;;;;;;8.23;5.95;;;20.80;32.80;;;;;;5069337;28;19927;-72
2022/12/17 17:31:46;;;;;;;7.78;5.25;;;20.80;32.80;;;;;;5069810;28;20067;-72
2022/12/17 17:34:36;;;;;;;6.80;4.90;;;20.80;32.80;;;;;;5069354;28;20385;-72
2022/12/17 17:37:03;;;;;;;7.35;5.35;;;20.80;32.90;;;;;;5069536;28;20048;-72
2022/12/17 17:39:31;;;;;;;8.18;4.85;;;20.80;32.90;;;;;;5083997;28;20665;-72
2022/12/17 17:41:59;;;;;;;8.80;5.75;;;20.80;32.90;;;;;;5069377;28;20114;-72
2022/12/17 17:44:26;;;;;;;6.38;4.57;;;20.80;33.00;;;;;;5069261;28;20062;-72
2022/12/17 17:46:54;;;;;;;8.40;5.85;;;20.80;33.00;;;;;;5069303;28;20139;-71
2022/12/17 17:49:21;;;;;;;6.05;4.63;;;20.70;32.90;;;;;;5046630;28;20054;-72
2022/12/17 17:51:49;;;;;;;5.70;4.55;;;20.80;33.00;;;;;;5069215;28;20045;-71
2022/12/17 17:54:38;;;;;;;6.60;5.00;;;20.70;33.00;;;;;;5068509;28;20052;-71
2022/12/17 17:57:05;;;;;;;6.97;4.63;;;20.80;33.10;;;;;;5068904;28;20124;-73
2022/12/17 17:59:33;;;;;;;7.35;4.53;;;20.80;33.10;;;;;;5069145;28;20037;-72
2022/12/17 18:02:01;;;;;;;8.52;5.43;;;20.80;33.10;;;;;;5068926;28;20125;-71
2022/12/17 18:04:29;;;;;;;5.82;4.72;;;20.70;33.10;;;;;;5068326;28;20075;-72
2022/12/17 18:06:56;;;;;;;6.00;4.65;;;20.70;33.20;;;;;;5069006;28;20271;-71
2022/12/17 18:09:44;;;;;;;6.65;5.03;;;20.70;33.20;;;;;;5053746;28;20404;-72
2022/12/17 18:14:57;;;;;;;6.57;4.93;;;20.70;33.30;;;;;;5068978;28;20048;-71
2022/12/17 18:17:45;;;;;;;6.45;4.72;;;20.70;33.30;;;;;;5068692;28;20052;-72
2022/12/17 18:20:13;;;;;;;6.35;4.82;;;20.70;33.30;;;;;;5084421;28;20320;-72
2022/12/17 18:22:40;;;;;;;6.38;5.00;;;20.60;33.30;;;;;;5068437;28;20466;-72
2022/12/17 18:25:08;;;;;;;5.93;4.72;;;20.60;33.30;;;;;;5064416;28;20060;-71
2022/12/17 18:27:35;;;;;;;5.57;4.20;;;20.60;33.40;;;;;;5068373;28;20496;-72
2022/12/17 18:30:02;;;;;;;6.07;5.00;;;20.60;33.40;;;;;;5068295;28;20162;-71
2022/12/17 18:32:30;;;;;;;6.47;4.95;;;20.60;33.40;;;;;;5068206;28;20051;-72
2022/12/17 18:34:57;;;;;;;5.82;4.53;;;20.60;33.40;;;;;;5084061;28;20256;-71
2022/12/17 18:37:24;;;;;;;6.00;4.53;;;20.60;33.40;;;;;;5067996;28;20049;-71
2022/12/17 18:39:51;;;;;;;6.97;4.20;;;20.60;33.50;;;;;;5068135;28;20059;-71
2022/12/17 18:45:05;;;;;;;7.13;4.45;;;20.60;33.60;;;;;;5068512;28;20053;-71
2022/12/17 18:47:32;;;;;;;6.30;4.60;;;20.50;33.50;;;;;;5068112;28;20044;-71
2022/12/17 18:49:59;;;;;;;7.43;5.45;;;20.50;33.60;;;;;;5068134;28;20059;-71
2022/12/17 18:52:27;;;;;;;6.90;4.53;;;20.50;33.60;;;;;;5068484;28;20049;-72
2022/12/17 18:54:54;;;;;;;6.40;4.63;;;20.50;33.60;;;;;;5067631;28;20523;-71
2022/12/17 18:57:21;;;;;;;7.15;4.80;;;20.50;33.60;;;;;;5063207;28;20048;-72
2022/12/17 18:59:48;;;;;;;6.63;4.90;;;20.50;33.60;;;;;;5066433;28;20048;-72
2022/12/17 19:02:15;;;;;;;8.85;5.28;;;20.50;33.60;;;;;;5067608;28;20052;-72
2022/12/17 19:04:43;;;;;;;6.60;4.80;;;20.50;33.60;;;;;;5067448;28;20052;-71
2022/12/17 19:07:10;;;;;;;5.93;4.38;;;20.50;33.60;;;;;;5067802;28;20085;-72
2022/12/17 19:09:38;;;;;;;5.88;4.50;;;20.40;33.60;;;;;;5067624;28;20053;-72
2022/12/17 19:12:08;;;;;;;6.60;4.60;;;20.50;33.70;;;;;;5049775;28;20040;-71
2022/12/17 19:14:36;;;;;;;7.40;4.88;;;20.40;33.70;;;;;;5083322;28;20044;-72
2022/12/17 19:17:04;;;;;;;7.47;5.50;;;20.40;33.70;;;;;;5067857;28;20043;-71
2022/12/17 19:19:32;;;;;;;6.75;4.88;;;20.40;33.70;;;;;;5068097;28;20048;-72
2022/12/17 19:21:59;;;;;;;6.63;4.25;;;20.40;33.70;;;;;;5067561;28;20095;-71
2022/12/17 19:24:26;;;;;;;8.80;5.60;;;20.40;33.70;;;;;;5067675;28;20503;-72
2022/12/17 19:26:53;;;;;;;5.68;4.60;;;20.40;33.80;;;;;;5067587;28;20496;-71
2022/12/17 19:29:21;;;;;;;6.28;4.85;;;20.40;33.80;;;;;;5063208;28;20051;-72
2022/12/17 19:31:49;;;;;;;8.38;5.05;;;20.40;33.80;;;;;;5067194;28;20051;-72
2022/12/17 19:34:18;;;;;;;5.47;4.30;;;20.40;33.90;;;;;;5067684;28;20052;-71
2022/12/17 19:36:46;;;;;;;5.93;4.65;;;20.40;33.90;;;;;;5067639;28;20049;-71
2022/12/17 19:39:16;;;;;;;6.38;4.47;;;20.30;33.90;;;;;;5049603;28;20121;-71
2022/12/17 19:41:44;;;;;;;6.40;4.55;;;20.30;33.90;;;;;;5066830;28;20248;-71
2022/12/17 19:44:15;;;;;;;6.90;4.88;;;20.30;33.90;;;;;;5067599;28;20052;-71
2022/12/17 19:46:42;;;;;;;7.03;4.72;;;20.30;33.90;;;;;;5067261;28;20045;-71
2022/12/17 19:49:14;;;;;;;5.43;4.20;;;20.30;33.90;;;;;;5067773;28;20121;-71
2022/12/17 19:51:42;;;;;;;6.47;4.82;;;20.40;33.90;;;;;;5049430;28;20054;-72
2022/12/17 19:54:13;;;;;;;7.38;4.90;;;20.30;33.90;;;;;;5067796;28;20044;-71
2022/12/17 19:56:43;;;;;;;5.07;3.97;;;20.30;33.90;;;;;;5066338;28;20485;-71
2022/12/17 19:59:12;;;;;;;6.70;5.15;;;20.30;33.90;;;;;;5067830;28;20075;-72
2022/12/17 20:01:42;;;;;;;6.40;4.90;;;20.30;33.90;;;;;;5066721;28;20520;-71
2022/12/17 20:04:12;;;;;;;7.57;5.10;;;20.30;33.90;;;;;;5062384;28;20056;-71
2022/12/17 20:06:39;;;;;;;6.60;4.63;;;20.30;33.90;;;;;;5067963;28;20503;-72
2022/12/17 20:09:06;;;;;;;6.50;4.50;;;20.30;33.90;;;;;;5067424;28;20049;-72
2022/12/17 20:11:34;;;;;;;5.85;4.22;;;20.30;34.00;;;;;;5067743;28;20051;-72
2022/12/17 20:14:13;;;;;;;7.43;4.82;;;20.30;34.00;;;;;;5066776;28;20448;-71
2022/12/17 20:16:47;;;;;;;7.22;4.78;;;20.30;34.00;;;;;;5050299;28;20036;-72
2022/12/17 20:19:17;;;;;;;6.63;5.10;;;20.30;34.10;;;;;;5069517;28;20048;-72
2022/12/17 20:21:45;;;;;;;5.43;4.35;;;20.30;34.00;;;;;;5053351;28;20052;-71
2022/12/17 20:24:12;;;;;;;7.10;4.50;;;20.20;34.00;;;;;;5071326;28;20048;-71
2022/12/17 20:26:40;;;;;;;6.63;4.53;;;20.20;34.00;;;;;;5070524;28;20516;-72
2022/12/17 20:29:08;;;;;;;7.13;4.65;;;20.20;34.60;;;;;;5069285;28;20051;-72
2022/12/17 20:31:36;;;;;;;5.82;4.25;;;20.20;34.00;;;;;;5070588;28;20044;-72
2022/12/17 20:34:05;;;;;;;6.35;4.50;;;20.20;34.00;;;;;;5070504;28;20044;-72
2022/12/17 20:36:32;;;;;;;7.60;5.55;;;20.20;34.00;;;;;;5048240;28;20044;-72
2022/12/17 20:39:01;;;;;;;5.32;4.68;;;20.20;34.00;;;;;;5070417;28;20052;-71
2022/12/17 20:41:29;;;;;;;5.82;4.50;;;20.20;34.00;;;;;;5070743;28;20504;-71
2022/12/17 20:43:57;;;;;;;7.00;4.82;;;20.20;34.00;;;;;;5085987;28;20055;-71
2022/12/17 20:46:25;;;;;;;6.28;4.30;;;20.20;34.10;;;;;;5070564;28;20287;-72
2022/12/17 20:48:53;;;;;;;6.40;4.78;;;20.20;34.10;;;;;;5071050;28;20075;-71
2022/12/17 20:51:23;;;;;;;7.78;4.88;;;20.20;34.10;;;;;;5069854;28;20695;-72
2022/12/17 20:53:52;;;;;;;6.10;4.40;;;20.20;34.10;;;;;;5070293;28;20142;-72
2022/12/17 20:56:24;;;;;;;9.15;5.20;;;20.20;34.10;;;;;;5069874;28;20120;-71
2022/12/17 20:58:53;;;;;;;7.13;5.25;;;20.20;34.10;;;;;;5085531;28;20059;-71
2022/12/17 21:01:22;;;;;;;7.63;4.90;;;20.10;34.10;;;;;;5070497;28;20048;-71
2022/12/17 21:03:51;;;;;;;5.50;4.07;;;20.10;34.10;;;;;;5051307;28;20076;-71
2022/12/17 21:06:22;;;;;;;6.53;4.72;;;20.10;34.10;;;;;;5070454;28;20094;-72
2022/12/17 21:08:50;;;;;;;7.18;5.25;;;20.10;34.10;;;;;;5065309;28;20059;-71
2022/12/17 21:11:21;;;;;;;6.60;4.72;;;20.10;34.20;;;;;;5085257;28;20086;-71
2022/12/17 21:13:48;;;;;;;6.88;4.45;;;20.10;34.20;;;;;;5068723;28;20047;-72
2022/12/17 21:16:22;;;;;;;7.28;4.65;;;20.10;34.20;;;;;;5069617;28;20055;-71
2022/12/17 21:18:54;;;;;;;5.05;4.18;;;20.10;34.20;;;;;;5070087;28;20132;-71
2022/12/17 21:21:23;;;;;;;6.60;4.93;;;20.10;34.20;;;;;;5069700;28;20059;-71
2022/12/17 21:23:50;;;;;;;8.68;5.22;;;20.10;34.20;;;;;;5070017;28;20036;-71
2022/12/17 21:26:23;;;;;;;5.63;4.55;;;20.10;34.20;;;;;;5069977;28;20049;-71
2022/12/17 21:28:52;;;;;;;6.22;4.68;;;20.10;34.20;;;;;;5035184;28;20123;-71
2022/12/17 21:31:23;;;;;;;7.32;4.65;;;20.10;34.20;;;;;;5068347;28;20055;-71
2022/12/17 21:33:54;;;;;;;7.28;4.95;;;20.10;34.20;;;;;;5069922;28;20059;-71
2022/12/17 21:36:22;;;;;;;6.72;4.75;;;20.00;34.20;;;;;;5069992;28;20139;-71
2022/12/17 21:38:50;;;;;;;7.00;4.95;;;20.10;34.30;;;;;;5067580;28;20481;-71
2022/12/17 21:41:22;;;;;;;6.43;4.30;;;20.10;34.20;;;;;;5067627;28;20044;-72
2022/12/17 21:43:58;;;;;;;5.57;4.32;;;20.00;34.20;;;;;;5067576;28;20079;-71
2022/12/17 21:46:26;;;;;;;7.95;5.10;;;20.00;34.20;;;;;;5069410;28;20071;-71
2022/12/17 21:48:54;;;;;;;7.30;4.88;;;20.10;34.30;;;;;;5069922;28;20093;-72
2022/12/17 21:51:22;;;;;;;8.02;5.00;;;20.00;34.30;;;;;;5068273;28;20050;-71
2022/12/17 21:53:54;;;;;;;5.75;4.38;;;20.00;34.30;;;;;;5069660;28;20048;-71
2022/12/17 21:56:24;;;;;;;6.75;5.03;;;20.00;34.30;;;;;;5069117;28;20459;-71
2022/12/17 21:58:56;;;;;;;6.68;5.03;;;20.00;34.30;;;;;;5069121;28;20045;-71
2022/12/17 22:01:28;;;;;;;7.18;4.68;;;20.00;34.30;;;;;;5084574;28;20052;-71
2022/12/17 22:03:57;;;;;;;5.55;4.50;;;20.00;34.30;;;;;;5069205;28;20048;-72
2022/12/17 22:06:26;;;;;;;5.65;4.22;;;20.00;34.30;;;;;;5069065;28;20045;-71
2022/12/17 22:09:03;;;;;;;5.90;4.80;;;20.00;34.30;;;;;;5083479;28;20044;-71
2022/12/17 22:11:44;;;;;;;6.85;4.50;;;20.00;34.30;;;;;;5068698;28;20504;-71
2022/12/17 22:14:11;;;;;;;6.57;4.88;;;20.00;34.30;;;;;;5046499;28;20052;-71
2022/12/17 22:16:47;;;;;;;6.38;4.15;;;20.00;34.30;;;;;;5068760;28;20049;-72
2022/12/17 22:19:21;;;;;;;5.55;4.45;;;20.00;34.30;;;;;;5068791;28;20136;-71
2022/12/17 22:21:50;;;;;;;8.32;5.05;;;20.00;34.30;;;;;;5068305;28;20086;-72
2022/12/17 22:24:24;;;;;;;7.43;4.80;;;20.00;34.30;;;;;;5068561;28;20054;-71
2022/12/17 22:26:58;;;;;;;5.35;4.13;;;20.00;34.30;;;;;;5069094;28;20071;-72
2022/12/17 22:35:01;;;;;;;7.40;5.13;;;20.00;34.30;;;;;;5068732;28;20052;-71
2022/12/17 22:37:48;;;;;;;7.47;5.00;;;20.00;34.30;;;;;;5068221;28;20412;-71
2022/12/17 22:40:37;;;;;;;6.03;4.55;;;20.00;34.30;;;;;;5066678;28;20201;-71
2022/12/17 22:43:30;;;;;;;6.45;4.60;;;20.00;34.30;;;;;;5080148;28;20041;-71
2022/12/17 22:46:18;;;;;;;6.55;4.70;;;20.00;34.30;;;;;;5049031;28;20048;-71
2022/12/17 22:48:46;;;;;;;6.95;4.38;;;20.00;34.30;;;;;;5068154;28;20044;-71
2022/12/17 22:51:13;;;;;;;7.25;4.55;;;19.90;34.30;;;;;;5068448;28;20044;-71
2022/12/17 22:53:54;;;;;;;6.57;4.65;;;20.00;34.30;;;;;;5081492;28;20101;-72
2022/12/17 22:56:22;;;;;;;6.20;4.57;;;20.00;34.30;;;;;;5068512;28;20127;-71
2022/12/17 22:59:15;;;;;;;6.00;4.47;;;19.90;34.30;;;;;;5067599;28;20059;-71
2022/12/17 23:01:43;;;;;;;6.40;5.13;;;19.90;34.30;;;;;;5068200;28;20059;-71
2022/12/17 23:04:13;;;;;;;5.63;4.40;;;20.00;34.30;;;;;;5067815;28;20036;-71
2022/12/17 23:06:41;;;;;;;6.75;4.40;;;19.90;34.30;;;;;;5068015;28;20086;-71
2022/12/17 23:09:08;;;;;;;5.43;4.60;;;19.90;34.30;;;;;;5067883;28;20119;-71
2022/12/17 23:11:35;;;;;;;7.40;4.82;;;19.90;34.30;;;;;;5068503;28;20044;-71
2022/12/17 23:14:05;;;;;;;6.13;4.97;;;19.90;34.30;;;;;;5067755;28;20228;-71
2022/12/17 23:16:33;;;;;;;6.97;4.82;;;19.90;34.30;;;;;;5067828;28;20378;-71
2022/12/17 23:19:00;;;;;;;6.32;4.60;;;19.90;34.30;;;;;;5078925;28;20123;-71
2022/12/17 23:21:27;;;;;;;5.50;4.32;;;19.90;34.30;;;;;;5065970;28;20044;-71
2022/12/17 23:23:55;;;;;;;6.90;4.88;;;19.90;34.30;;;;;;5067845;28;20043;-71
2022/12/17 23:26:25;;;;;;;5.72;4.32;;;19.90;34.30;;;;;;5083038;28;20131;-71
2022/12/17 23:28:59;;;;;;;6.25;4.57;;;19.90;34.30;;;;;;5067776;28;20432;-71
2022/12/17 23:31:29;;;;;;;5.50;4.57;;;19.90;34.40;;;;;;5067516;28;20454;-71
2022/12/17 23:33:57;;;;;;;5.60;4.53;;;19.90;34.30;;;;;;5068252;28;20048;-71
2022/12/17 23:36:25;;;;;;;6.13;4.72;;;19.90;34.90;;;;;;5049595;28;20082;-71
2022/12/17 23:38:54;;;;;;;6.30;4.57;;;19.90;34.40;;;;;;5067690;28;20181;-71
2022/12/17 23:41:24;;;;;;;5.30;4.65;;;19.90;34.40;;;;;;5067389;28;20044;-71
2022/12/17 23:43:52;;;;;;;5.87;4.63;;;19.90;34.40;;;;;;5067716;28;20212;-71
2022/12/17 23:46:20;;;;;;;6.13;4.50;;;19.90;34.40;;;;;;5082558;28;20289;-71
2022/12/17 23:48:47;;;;;;;6.65;4.60;;;19.90;34.40;;;;;;5067912;28;20076;-71
2022/12/17 23:51:16;;;;;;;5.93;4.45;;;19.90;34.40;;;;;;5062760;28;20048;-71
2022/12/17 23:53:43;;;;;;;6.90;4.90;;;19.80;34.30;;;;;;5069543;28;20045;-71
2022/12/17 23:56:14;;;;;;;6.95;4.63;;;19.80;34.40;;;;;;5071157;28;20480;-71
2022/12/17 23:58:43;;;;;;;7.90;5.28;;;19.80;34.40;;;;;;5071400;28;20303;-71
